Time;durP1;ratioP1;P1;durP2;ratioP2;P2;SDS_P1;SDS_P2;PMS_P1;PMS_P2;Temp;Humidity;BMP_temperature;BMP_pressure;BME280_temperature;BME280_humidity;BME280_pressure;Samples;Min_cycle;Max_cycle;Signal;HPM_P1;HPM_P2
2023/08/18 00:02:04;;;;;;;1.67;1.57;;;16.80;99.90;;;;;;5028740;28;20197;-84
2023/08/18 00:04:30;;;;;;;1.87;1.70;;;16.80;99.90;;;;;;5029863;28;20268;-85
2023/08/18 00:06:55;;;;;;;12.53;2.03;;;16.80;99.90;;;;;;5029303;28;20233;-84
2023/08/18 00:09:24;;;;;;;1.47;1.37;;;16.80;99.90;;;;;;5046875;28;20352;-84
2023/08/18 00:11:50;;;;;;;5.03;2.10;;;16.80;99.90;;;;;;5046501;28;20209;-85
2023/08/18 00:14:19;;;;;;;2.27;1.67;;;16.80;99.90;;;;;;5029161;28;20209;-84
2023/08/18 00:16:45;;;;;;;3.67;2.17;;;16.80;99.90;;;;;;5032477;28;20545;-83
2023/08/18 00:19:14;;;;;;;3.07;2.60;;;16.90;99.90;;;;;;5051019;28;20192;-85
2023/08/18 00:21:47;;;;;;;2.80;2.07;;;16.80;99.90;;;;;;5031966;28;20209;-85
2023/08/18 00:24:24;;;;;;;2.20;2.00;;;16.80;99.90;;;;;;5032606;28;20229;-84
2023/08/18 00:26:50;;;;;;;3.00;2.27;;;16.80;99.90;;;;;;5016892;28;20300;-84
2023/08/18 00:29:16;;;;;;;3.03;2.17;;;16.80;99.90;;;;;;5032194;28;20267;-86
2023/08/18 00:31:42;;;;;;;3.27;1.93;;;16.80;99.90;;;;;;5016793;28;20185;-85
2023/08/18 00:34:08;;;;;;;3.07;2.20;;;16.80;99.90;;;;;;5055246;28;20228;-85
2023/08/18 00:36:36;;;;;;;4.53;2.53;;;16.80;99.90;;;;;;5050046;28;20206;-86
2023/08/18 00:39:02;;;;;;;4.57;2.70;;;16.80;99.90;;;;;;5038473;28;20316;-86
2023/08/18 00:41:31;;;;;;;6.57;2.60;;;16.80;99.90;;;;;;5051939;28;20288;-85
2023/08/18 00:43:56;;;;;;;2.67;2.00;;;16.80;99.90;;;;;;5051734;28;20204;-84
2023/08/18 00:46:26;;;;;;;4.17;2.43;;;16.80;99.90;;;;;;5070758;28;20199;-84
2023/08/18 00:48:59;;;;;;;2.90;2.00;;;16.80;99.90;;;;;;5044861;28;20216;-85
2023/08/18 00:51:30;;;;;;;2.43;2.17;;;16.80;99.90;;;;;;5051766;28;20237;-85
2023/08/18 00:54:04;;;;;;;5.07;3.00;;;16.90;99.90;;;;;;5052039;28;20227;-84
2023/08/18 00:56:30;;;;;;;3.40;2.53;;;16.90;99.90;;;;;;5051270;28;20216;-86
2023/08/18 00:59:08;;;;;;;3.83;2.47;;;16.90;99.90;;;;;;5053045;28;20158;-87
2023/08/18 01:01:34;;;;;;;3.67;2.80;;;16.90;99.90;;;;;;5036779;28;20170;-86
2023/08/18 01:04:00;;;;;;;4.97;2.77;;;16.90;99.90;;;;;;5035209;28;20248;-85
2023/08/18 01:06:29;;;;;;;5.73;3.03;;;16.90;99.90;;;;;;5027585;28;20217;-85
2023/08/18 01:08:55;;;;;;;3.27;2.80;;;16.90;99.90;;;;;;5034617;28;20223;-86
2023/08/18 01:11:54;;;;;;;3.50;2.60;;;16.80;99.90;;;;;;5051492;28;20209;-85
2023/08/18 01:14:57;;;;;;;3.93;3.17;;;16.80;99.90;;;;;;5051407;28;20224;-85
2023/08/18 01:17:34;;;;;;;3.80;2.20;;;16.70;99.90;;;;;;5051675;28;20213;-85
2023/08/18 01:20:00;;;;;;;4.13;2.43;;;16.60;99.90;;;;;;5083577;28;20188;-85
2023/08/18 01:22:27;;;;;;;4.00;3.00;;;16.50;99.90;;;;;;5068825;28;20190;-85
2023/08/18 01:25:05;;;;;;;3.13;2.63;;;16.40;99.90;;;;;;5069026;28;20225;-86
2023/08/18 01:27:31;;;;;;;3.10;2.53;;;16.40;99.90;;;;;;5068165;28;20304;-85
2023/08/18 01:29:58;;;;;;;2.37;2.17;;;16.40;99.90;;;;;;5050717;28;20213;-87
2023/08/18 01:32:33;;;;;;;2.60;2.40;;;16.40;99.90;;;;;;5068853;28;20205;-87
2023/08/18 01:35:00;;;;;;;5.00;2.13;;;16.50;99.90;;;;;;5068820;28;20619;-85
2023/08/18 01:37:30;;;;;;;3.43;2.00;;;16.40;99.90;;;;;;5035195;28;20184;-85
2023/08/18 01:40:00;;;;;;;2.40;1.70;;;16.50;99.90;;;;;;5068955;28;20248;-86
2023/08/18 01:42:27;;;;;;;4.37;1.97;;;16.50;99.90;;;;;;5055155;28;20228;-85
2023/08/18 01:45:00;;;;;;;4.27;2.73;;;16.60;99.90;;;;;;5040123;28;20394;-85
2023/08/18 01:47:26;;;;;;;1.77;1.53;;;16.60;99.90;;;;;;5051111;28;20301;-85
2023/08/18 01:49:55;;;;;;;1.97;1.77;;;16.60;99.90;;;;;;5050601;28;20276;-85
2023/08/18 01:52:23;;;;;;;2.57;1.90;;;16.70;99.90;;;;;;5051770;28;20223;-87
2023/08/18 01:54:51;;;;;;;4.70;2.33;;;16.70;99.90;;;;;;5068442;28;20213;-87
2023/08/18 01:57:20;;;;;;;2.87;2.10;;;16.70;99.90;;;;;;5068818;28;20205;-87
2023/08/18 01:59:46;;;;;;;2.67;2.27;;;16.70;99.90;;;;;;5064622;28;20212;-85
2023/08/18 02:02:18;;;;;;;4.77;2.17;;;16.70;99.90;;;;;;5049890;28;20296;-85
2023/08/18 02:04:43;;;;;;;3.83;2.30;;;16.70;99.90;;;;;;5051087;28;20311;-85
2023/08/18 02:07:09;;;;;;;2.67;2.10;;;16.70;99.90;;;;;;5033681;28;20308;-85
2023/08/18 02:09:37;;;;;;;2.30;2.07;;;16.80;99.90;;;;;;5050227;28;20220;-87
2023/08/18 02:12:06;;;;;;;6.60;2.73;;;16.80;99.90;;;;;;5062575;28;20217;-85
2023/08/18 02:14:32;;;;;;;2.77;2.10;;;16.90;99.90;;;;;;5050247;28;20220;-84
2023/08/18 02:16:58;;;;;;;2.37;2.13;;;16.90;99.90;;;;;;5050020;28;20186;-87
2023/08/18 02:19:24;;;;;;;3.77;2.77;;;16.90;99.90;;;;;;5051047;28;20219;-87
2023/08/18 02:21:50;;;;;;;2.80;2.27;;;16.90;99.90;;;;;;5050117;28;20213;-84
2023/08/18 02:24:16;;;;;;;3.57;2.53;;;16.90;99.90;;;;;;5050202;28;20229;-85
2023/08/18 02:26:44;;;;;;;3.27;2.20;;;16.90;99.90;;;;;;5050051;28;20801;-84
2023/08/18 02:29:10;;;;;;;3.13;2.23;;;16.90;99.90;;;;;;5067523;28;20212;-84
2023/08/18 02:31:38;;;;;;;6.27;3.00;;;16.90;99.90;;;;;;5068769;28;20178;-86
2023/08/18 02:34:07;;;;;;;4.47;2.03;;;17.00;99.90;;;;;;5067412;28;20220;-85
2023/08/18 02:36:38;;;;;;;4.67;2.27;;;16.90;99.90;;;;;;5067719;28;20217;-85
2023/08/18 02:39:07;;;;;;;7.10;2.23;;;16.90;99.90;;;;;;5066917;28;20241;-85
2023/08/18 02:41:35;;;;;;;2.80;2.60;;;16.90;99.90;;;;;;5050120;28;20217;-85
2023/08/18 02:44:03;;;;;;;2.77;2.43;;;16.80;99.90;;;;;;5033529;28;20258;-84
2023/08/18 02:46:29;;;;;;;2.90;2.53;;;16.80;99.90;;;;;;5050391;28;20223;-85
2023/08/18 02:49:06;;;;;;;6.60;3.47;;;16.70;99.90;;;;;;5033225;28;20407;-87
2023/08/18 02:51:37;;;;;;;4.03;2.77;;;16.60;99.90;;;;;;5051198;28;20220;-84
2023/08/18 02:54:03;;;;;;;3.20;2.27;;;16.60;99.90;;;;;;5048450;28;20212;-85
2023/08/18 02:56:32;;;;;;;3.10;2.83;;;16.50;99.90;;;;;;5051744;28;20208;-85
2023/08/18 02:58:58;;;;;;;3.57;2.60;;;16.40;99.90;;;;;;5059703;28;20200;-85
2023/08/18 03:01:23;;;;;;;3.40;2.47;;;16.40;99.90;;;;;;5033672;28;20201;-85
2023/08/18 03:03:49;;;;;;;4.17;3.20;;;16.30;99.90;;;;;;5049175;28;20686;-85
2023/08/18 03:06:15;;;;;;;3.00;2.47;;;16.30;99.90;;;;;;5066098;28;20221;-86
2023/08/18 03:08:41;;;;;;;4.03;2.80;;;16.20;99.90;;;;;;5067318;28;20201;-87
2023/08/18 03:11:08;;;;;;;4.50;2.40;;;16.10;99.90;;;;;;5049604;28;20209;-85
2023/08/18 03:13:34;;;;;;;4.60;3.03;;;16.10;99.90;;;;;;5067926;28;20165;-85
2023/08/18 03:16:00;;;;;;;3.03;2.30;;;16.00;99.90;;;;;;5055850;28;20216;-85
2023/08/18 03:18:26;;;;;;;3.50;2.60;;;16.10;99.90;;;;;;5049516;28;20213;-86
2023/08/18 03:20:58;;;;;;;4.40;2.97;;;16.00;99.90;;;;;;5049364;28;20277;-87
2023/08/18 03:23:25;;;;;;;3.60;2.50;;;16.00;99.90;;;;;;5049306;28;20292;-86
2023/08/18 03:25:51;;;;;;;5.73;2.73;;;16.10;99.90;;;;;;5049457;28;20173;-85
2023/08/18 03:28:19;;;;;;;4.83;3.43;;;16.10;99.90;;;;;;5050264;28;20173;-85
2023/08/18 03:30:45;;;;;;;3.53;3.23;;;16.10;99.90;;;;;;5066321;28;20213;-86
2023/08/18 03:33:11;;;;;;;3.80;2.87;;;16.20;99.90;;;;;;5034198;28;20251;-85
2023/08/18 03:35:36;;;;;;;4.63;3.77;;;16.20;99.90;;;;;;5037515;28;20657;-87
2023/08/18 03:38:03;;;;;;;6.50;3.13;;;16.30;99.90;;;;;;5032553;28;20273;-85
2023/08/18 03:40:32;;;;;;;6.10;2.97;;;16.30;99.90;;;;;;5049851;28;20229;-85
2023/08/18 03:43:01;;;;;;;3.63;2.80;;;16.40;99.90;;;;;;5049345;28;20256;-87
2023/08/18 03:45:27;;;;;;;3.03;2.13;;;16.40;99.90;;;;;;5049064;28;20575;-86
2023/08/18 03:47:53;;;;;;;3.57;2.30;;;16.50;99.90;;;;;;5065724;28;20220;-85
2023/08/18 03:50:28;;;;;;;5.53;2.50;;;16.50;99.90;;;;;;5044403;28;20216;-85
2023/08/18 03:52:55;;;;;;;4.20;2.57;;;16.50;99.90;;;;;;5063540;28;20173;-85
2023/08/18 03:55:24;;;;;;;4.73;2.60;;;16.60;99.90;;;;;;5053980;28;20177;-85
2023/08/18 03:57:49;;;;;;;7.13;3.33;;;16.60;99.90;;;;;;5036185;28;20206;-87
2023/08/18 04:00:19;;;;;;;2.83;2.50;;;16.60;99.90;;;;;;5036466;28;20620;-86
2023/08/18 04:02:47;;;;;;;3.87;2.70;;;16.60;99.90;;;;;;5036571;28;20209;-86
2023/08/18 04:05:13;;;;;;;3.77;2.97;;;16.70;99.90;;;;;;5036542;28;20260;-85
2023/08/18 04:07:39;;;;;;;2.60;2.40;;;16.70;99.90;;;;;;5053389;28;20169;-85
2023/08/18 04:10:07;;;;;;;7.40;3.03;;;16.70;99.90;;;;;;5052705;28;20351;-86
2023/08/18 04:12:33;;;;;;;3.63;2.33;;;16.70;99.90;;;;;;5070634;28;20217;-86
2023/08/18 04:14:59;;;;;;;2.57;2.37;;;16.70;99.90;;;;;;5035645;28;20232;-85
2023/08/18 04:17:24;;;;;;;4.03;2.50;;;16.70;99.90;;;;;;5052523;28;20423;-87
2023/08/18 04:19:53;;;;;;;4.30;2.60;;;16.70;99.90;;;;;;5051718;28;20178;-85
2023/08/18 04:22:19;;;;;;;4.30;2.80;;;16.70;99.90;;;;;;5053277;28;20201;-85
2023/08/18 04:24:47;;;;;;;3.53;3.20;;;16.80;99.90;;;;;;5070234;28;20298;-85
2023/08/18 04:27:15;;;;;;;2.63;2.40;;;16.80;99.90;;;;;;5052498;28;20695;-85
2023/08/18 04:29:41;;;;;;;4.50;2.93;;;16.80;99.90;;;;;;5052074;28;20224;-86
2023/08/18 04:32:07;;;;;;;12.47;2.90;;;16.80;99.90;;;;;;5052349;28;20662;-86
2023/08/18 04:34:35;;;;;;;5.07;3.33;;;16.80;99.90;;;;;;5069521;28;20619;-84
2023/08/18 04:37:04;;;;;;;3.50;2.73;;;16.80;99.90;;;;;;5035385;28;20217;-84
2023/08/18 04:39:30;;;;;;;5.47;3.20;;;16.80;99.90;;;;;;5051862;28;20655;-84
2023/08/18 04:41:55;;;;;;;3.23;2.63;;;16.80;99.90;;;;;;5052185;28;20324;-86
2023/08/18 04:44:24;;;;;;;4.00;2.77;;;16.80;99.90;;;;;;5070215;28;20229;-85
2023/08/18 04:46:49;;;;;;;2.90;2.63;;;16.80;99.90;;;;;;5052381;28;20173;-86
2023/08/18 04:49:15;;;;;;;6.17;2.93;;;16.90;99.90;;;;;;5068996;28;20188;-85
2023/08/18 04:51:44;;;;;;;3.67;2.43;;;16.80;99.90;;;;;;5035784;28;20213;-85
2023/08/18 04:54:12;;;;;;;5.00;2.70;;;16.90;99.90;;;;;;5052069;28;20213;-85
2023/08/18 04:56:42;;;;;;;4.33;3.07;;;16.90;99.90;;;;;;5035077;28;20568;-84
2023/08/18 04:59:11;;;;;;;5.47;3.47;;;16.90;99.90;;;;;;5068906;28;20516;-85
2023/08/18 05:01:39;;;;;;;4.67;2.87;;;17.00;99.90;;;;;;5069325;28;20483;-82
2023/08/18 05:04:08;;;;;;;4.07;3.00;;;17.00;99.90;;;;;;5051468;28;20308;-84
2023/08/18 05:06:34;;;;;;;3.97;2.93;;;17.00;99.90;;;;;;5069295;28;20410;-84
2023/08/18 05:09:00;;;;;;;2.97;2.47;;;17.00;99.90;;;;;;5067906;28;20693;-84
2023/08/18 05:11:26;;;;;;;3.87;2.73;;;17.00;99.90;;;;;;5051310;28;20247;-84
2023/08/18 05:13:51;;;;;;;4.13;3.20;;;17.10;99.90;;;;;;5050990;28;20768;-84
2023/08/18 05:16:17;;;;;;;3.53;3.20;;;17.10;99.90;;;;;;5052182;28;20165;-84
2023/08/18 05:18:46;;;;;;;7.67;2.77;;;17.10;99.90;;;;;;5051407;28;20232;-84
2023/08/18 05:21:12;;;;;;;6.23;3.97;;;17.10;99.90;;;;;;5053086;28;20280;-84
2023/08/18 05:23:38;;;;;;;6.37;3.63;;;17.10;99.90;;;;;;5055412;28;20209;-85
2023/08/18 05:26:04;;;;;;;6.60;3.50;;;17.10;99.90;;;;;;5051005;28;20185;-84
2023/08/18 05:28:32;;;;;;;3.93;3.13;;;17.10;99.90;;;;;;5051779;28;20184;-84
2023/08/18 05:31:01;;;;;;;3.87;3.27;;;17.10;99.90;;;;;;5034491;28;20217;-86
2023/08/18 05:33:27;;;;;;;4.57;3.73;;;17.20;99.90;;;;;;5034708;28;20205;-84
2023/08/18 05:35:56;;;;;;;4.53;3.20;;;17.20;99.90;;;;;;5068679;28;20220;-84
2023/08/18 05:38:22;;;;;;;4.57;2.97;;;17.20;99.90;;;;;;5050758;28;20236;-84
2023/08/18 05:40:55;;;;;;;7.30;2.97;;;17.20;99.90;;;;;;5069137;28;20664;-84
2023/08/18 05:43:39;;;;;;;;;;;;;;;;;;;;;
2023/08/18 05:46:35;;;;;;;4.87;2.40;;;17.30;99.90;;;;;;5069565;28;20205;-85
2023/08/18 05:49:06;;;;;;;4.00;3.23;;;17.30;99.90;;;;;;5027775;28;20209;-87
2023/08/18 05:51:35;;;;;;;7.07;4.37;;;17.30;99.90;;;;;;5072436;28;20347;-86
2023/08/18 05:54:17;;;;;;;5.53;3.33;;;17.40;99.90;;;;;;5051600;28;20224;-84
2023/08/18 05:56:48;;;;;;;4.53;3.13;;;17.40;99.90;;;;;;5047353;28;20218;-87
2023/08/18 05:59:19;;;;;;;4.67;2.47;;;17.40;99.90;;;;;;5050016;28;20271;-84
2023/08/18 06:01:45;;;;;;;6.83;3.70;;;17.40;99.90;;;;;;5068623;28;20169;-84
2023/08/18 06:27:47;;;;;;;3.43;2.43;;;17.70;99.90;;;;;;4792331;29;20230;-89
2023/08/18 06:31:28;;;;;;;5.60;3.50;;;17.70;99.90;;;;;;4787003;29;20236;-84
2023/08/18 06:37:38;;;;;;;4.07;2.70;;;17.80;99.90;;;;;;4749504;29;20670;-87
2023/08/18 06:45:08;;;;;;;;;;;;;;;;;;;;;
2023/08/18 06:54:48;;;;;;;6.67;3.13;;;17.90;99.90;;;;;;4852524;29;20243;-84
2023/08/18 06:57:16;;;;;;;4.00;3.27;;;17.90;99.90;;;;;;4873886;29;20393;-85
2023/08/18 06:59:50;;;;;;;3.70;2.97;;;17.90;99.90;;;;;;4852890;29;20220;-85
2023/08/18 07:02:44;;;;;;;3.67;2.27;;;18.00;99.90;;;;;;4852497;29;20224;-85
2023/08/18 07:05:29;;;;;;;4.10;2.93;;;18.00;99.90;;;;;;4963681;28;20699;-84
2023/08/18 07:08:24;;;;;;;4.37;2.93;;;17.90;99.90;;;;;;4976869;28;20484;-85
2023/08/18 07:13:59;;;;;;;4.63;2.57;;;17.90;99.90;;;;;;5001224;28;20756;-85
2023/08/18 07:20:24;;;;;;;4.47;2.90;;;17.90;99.90;;;;;;5000685;28;20680;-87
2023/08/18 07:22:55;;;;;;;5.60;2.90;;;17.90;99.90;;;;;;5009282;28;20273;-86
2023/08/18 07:25:42;;;;;;;3.47;2.37;;;17.90;99.90;;;;;;5019383;28;20222;-85
2023/08/18 07:28:20;;;;;;;7.73;3.37;;;18.00;99.90;;;;;;5023309;28;20209;-86
2023/08/18 07:30:46;;;;;;;7.63;2.63;;;18.00;99.90;;;;;;5027920;28;20280;-86
2023/08/18 07:33:17;;;;;;;6.57;3.80;;;18.00;99.90;;;;;;5019507;28;20228;-87
2023/08/18 07:35:53;;;;;;;3.73;2.60;;;18.10;99.90;;;;;;5006636;28;20217;-88
2023/08/18 07:38:19;;;;;;;4.10;3.07;;;18.10;99.90;;;;;;4994883;28;20230;-85
2023/08/18 07:40:45;;;;;;;5.90;3.10;;;18.20;99.90;;;;;;5050890;28;20177;-86
2023/08/18 07:43:24;;;;;;;;;;;;;;;;;;;;;
2023/08/18 07:46:13;;;;;;;4.63;2.90;;;18.30;99.90;;;;;;5037411;28;20222;-85
2023/08/18 07:48:43;;;;;;;8.23;3.00;;;18.40;99.90;;;;;;5033300;28;20209;-85
2023/08/18 07:51:32;;;;;;;5.40;3.93;;;18.40;99.90;;;;;;5013671;28;20205;-84
2023/08/18 07:54:09;;;;;;;5.57;2.73;;;18.40;99.90;;;;;;5037891;28;20213;-85
2023/08/18 07:56:43;;;;;;;4.40;3.23;;;18.50;99.90;;;;;;5042212;28;20213;-86
2023/08/18 07:59:48;;;;;;;5.07;3.10;;;18.50;99.90;;;;;;5034584;28;20237;-85
2023/08/18 08:02:33;;;;;;;4.27;2.73;;;18.50;99.90;;;;;;5043800;28;20297;-86
2023/08/18 08:05:35;;;;;;;3.03;2.73;;;18.60;99.90;;;;;;5020890;28;20256;-85
2023/08/18 08:11:44;;;;;;;5.13;2.77;;;18.70;99.90;;;;;;5054636;28;20236;-82
2023/08/18 08:14:10;;;;;;;5.27;3.20;;;18.80;99.90;;;;;;5015824;28;20678;-83
2023/08/18 08:16:35;;;;;;;5.40;3.23;;;18.80;99.90;;;;;;5016537;28;20174;-83
2023/08/18 08:19:04;;;;;;;6.73;3.80;;;18.80;99.90;;;;;;5032076;28;20263;-82
2023/08/18 08:21:30;;;;;;;5.83;3.33;;;18.90;99.90;;;;;;5031666;28;20685;-84
2023/08/18 08:23:56;;;;;;;4.17;2.97;;;19.00;99.90;;;;;;5015615;28;20217;-82
2023/08/18 08:26:21;;;;;;;5.60;3.67;;;19.00;99.90;;;;;;5031946;28;20287;-82
2023/08/18 08:28:47;;;;;;;5.77;3.77;;;19.10;99.90;;;;;;5032669;28;20178;-82
2023/08/18 08:31:13;;;;;;;3.97;2.87;;;19.20;99.90;;;;;;5016034;28;20178;-82
2023/08/18 08:33:39;;;;;;;7.30;3.33;;;19.00;99.90;;;;;;5049211;28;20214;-82
2023/08/18 08:36:05;;;;;;;4.67;3.70;;;19.00;99.90;;;;;;5031291;28;20441;-82
2023/08/18 08:38:31;;;;;;;9.67;3.57;;;19.00;99.90;;;;;;5031730;28;20279;-82
2023/08/18 08:40:59;;;;;;;4.60;3.33;;;19.00;99.90;;;;;;5049209;28;20387;-82
2023/08/18 08:43:25;;;;;;;5.00;4.30;;;19.10;99.90;;;;;;5046484;28;20239;-83
2023/08/18 08:45:52;;;;;;;7.00;4.00;;;19.00;99.90;;;;;;5071559;28;20813;-82
2023/08/18 08:48:20;;;;;;;4.17;3.50;;;19.00;99.90;;;;;;5089599;28;20212;-83
2023/08/18 08:50:50;;;;;;;5.40;3.90;;;19.00;99.90;;;;;;5071330;28;20209;-82
2023/08/18 08:53:22;;;;;;;4.63;3.83;;;19.00;99.90;;;;;;5089640;28;20212;-83
2023/08/18 08:55:50;;;;;;;7.37;3.87;;;18.90;99.90;;;;;;5071638;28;20173;-81
2023/08/18 08:58:16;;;;;;;4.97;3.20;;;18.90;99.90;;;;;;5072230;28;20164;-82
2023/08/18 09:00:42;;;;;;;8.30;3.93;;;18.90;99.90;;;;;;5071679;28;20755;-83
2023/08/18 09:03:08;;;;;;;5.17;4.40;;;19.00;99.90;;;;;;5054661;28;20243;-82
2023/08/18 09:05:34;;;;;;;6.30;3.87;;;18.90;99.90;;;;;;5071404;28;20363;-83
2023/08/18 09:08:00;;;;;;;6.57;4.67;;;19.00;99.90;;;;;;5071578;28;20180;-83
2023/08/18 09:10:29;;;;;;;6.53;4.50;;;19.00;99.90;;;;;;5071934;28;20176;-83
2023/08/18 09:12:55;;;;;;;4.90;4.33;;;19.10;99.90;;;;;;5054625;28;20501;-82
2023/08/18 09:15:25;;;;;;;10.07;4.97;;;19.20;99.90;;;;;;5084660;28;20224;-82
2023/08/18 09:17:51;;;;;;;7.13;4.03;;;19.20;99.90;;;;;;5051677;28;20221;-81
2023/08/18 09:20:17;;;;;;;5.97;4.50;;;19.20;99.90;;;;;;5051226;28;20356;-82
2023/08/18 09:22:43;;;;;;;8.23;5.37;;;19.10;99.90;;;;;;5051612;28;20219;-82
2023/08/18 09:25:09;;;;;;;7.33;4.73;;;19.20;99.90;;;;;;5067605;28;20233;-82
2023/08/18 09:27:35;;;;;;;7.03;3.57;;;19.20;99.90;;;;;;5068918;28;20243;-82
2023/08/18 09:30:00;;;;;;;9.63;5.57;;;19.20;99.90;;;;;;5050508;28;20228;-81
2023/08/18 09:32:27;;;;;;;5.87;4.43;;;19.50;99.90;;;;;;5050805;28;20727;-82
2023/08/18 09:34:53;;;;;;;5.97;4.00;;;19.80;99.90;;;;;;5067362;28;20550;-81
2023/08/18 09:37:19;;;;;;;9.50;4.57;;;19.90;99.90;;;;;;5068798;28;20246;-82
2023/08/18 09:39:45;;;;;;;6.17;4.90;;;20.00;99.90;;;;;;5050845;28;20718;-82
2023/08/18 09:42:12;;;;;;;8.23;5.87;;;20.00;99.90;;;;;;5049967;28;20218;-81
2023/08/18 09:44:38;;;;;;;8.10;4.93;;;20.00;99.90;;;;;;5067326;28;20225;-82
2023/08/18 09:47:06;;;;;;;8.87;4.90;;;19.90;99.90;;;;;;5066939;28;20276;-81
2023/08/18 09:49:42;;;;;;;8.53;5.57;;;20.00;99.90;;;;;;5069825;28;20185;-81
2023/08/18 09:52:12;;;;;;;10.67;5.40;;;20.10;99.90;;;;;;5091592;28;20212;-80
2023/08/18 09:54:50;;;;;;;9.33;5.03;;;20.10;99.90;;;;;;5076317;28;20224;-80
2023/08/18 09:57:28;;;;;;;7.60;5.27;;;20.00;99.90;;;;;;5066572;28;20228;-80
2023/08/18 09:59:59;;;;;;;8.90;5.03;;;19.80;99.90;;;;;;5067534;28;20303;-81
2023/08/18 10:05:25;;;;;;;9.60;5.17;;;19.90;99.90;;;;;;5067126;28;20262;-80
2023/08/18 10:08:01;;;;;;;7.07;5.03;;;19.90;99.90;;;;;;5070119;28;20153;-80
2023/08/18 10:10:34;;;;;;;8.50;6.27;;;20.00;99.90;;;;;;5081594;28;20231;-81
2023/08/18 10:13:04;;;;;;;6.77;5.33;;;20.10;99.90;;;;;;5073721;28;20668;-81
2023/08/18 10:15:39;;;;;;;5.57;4.77;;;20.10;99.90;;;;;;5067182;28;20248;-81
2023/08/18 10:18:11;;;;;;;9.13;5.80;;;20.20;99.90;;;;;;5066827;28;20666;-80
2023/08/18 10:20:53;;;;;;;10.03;5.60;;;20.20;99.90;;;;;;5065757;28;20243;-80
2023/08/18 10:23:52;;;;;;;;;;;;;;;;;;;;;
2023/08/18 10:26:50;;;;;;;10.57;4.10;;;20.40;99.90;;;;;;5066018;28;20291;-80
2023/08/18 10:29:47;;;;;;;7.00;4.93;;;20.40;99.90;;;;;;5062484;28;20266;-80
2023/08/18 10:32:42;;;;;;;9.43;5.83;;;20.30;99.90;;;;;;5051627;28;20221;-81
2023/08/18 10:35:31;;;;;;;8.33;4.47;;;20.40;99.90;;;;;;5057655;28;20285;-81
2023/08/18 10:38:09;;;;;;;6.83;4.10;;;20.30;99.90;;;;;;5059671;28;20165;-80
2023/08/18 10:40:38;;;;;;;7.80;4.70;;;20.30;99.90;;;;;;5079251;28;20665;-78
2023/08/18 10:43:17;;;;;;;7.63;4.63;;;20.30;99.90;;;;;;5064478;28;20631;-80
2023/08/18 10:46:26;;;;;;;;;;;;;;;;;;;;;
2023/08/18 10:49:00;;;;;;;9.93;4.57;;;20.50;99.90;;;;;;5066543;28;20243;-81
2023/08/18 10:51:44;;;;;;;7.97;4.47;;;20.50;99.90;;;;;;5073864;28;20251;-81
2023/08/18 10:54:13;;;;;;;9.70;4.73;;;20.60;99.90;;;;;;5066964;28;20358;-79
2023/08/18 10:56:55;;;;;;;6.00;4.73;;;20.70;99.90;;;;;;5055827;28;20309;-81
2023/08/18 10:59:56;;;;;;;13.13;6.07;;;21.00;99.90;;;;;;5066104;28;20216;-81
2023/08/18 11:02:31;;;;;;;7.93;4.63;;;21.20;99.90;;;;;;5065522;28;20224;-82
2023/08/18 11:05:05;;;;;;;6.87;5.27;;;21.30;99.90;;;;;;5048655;28;20212;-81
2023/08/18 11:07:50;;;;;;;11.80;5.73;;;21.20;99.90;;;;;;5066652;28;20169;-82
2023/08/18 11:10:29;;;;;;;8.67;5.37;;;21.20;99.90;;;;;;5066936;28;20689;-82
2023/08/18 11:13:02;;;;;;;10.00;5.10;;;21.30;99.90;;;;;;5073408;28;20260;-82
2023/08/18 11:15:58;;;;;;;7.50;5.13;;;21.40;99.90;;;;;;5063521;28;20583;-83
2023/08/18 11:18:27;;;;;;;7.27;5.53;;;21.50;99.90;;;;;;5065270;28;20212;-84
2023/08/18 11:21:01;;;;;;;7.40;5.25;;;21.70;99.90;;;;;;5067922;28;20684;-82
2023/08/18 11:23:30;;;;;;;8.60;5.28;;;21.60;99.90;;;;;;5062810;28;20213;-82
2023/08/18 11:26:43;;;;;;;8.93;5.60;;;21.70;99.90;;;;;;5028192;28;20217;-83
2023/08/18 11:29:26;;;;;;;11.97;5.40;;;21.80;99.90;;;;;;5065029;28;20205;-82
2023/08/18 11:32:08;;;;;;;8.10;5.03;;;21.90;99.90;;;;;;5041680;28;20177;-83
2023/08/18 11:34:53;;;;;;;7.80;5.43;;;21.80;99.90;;;;;;5064835;28;20169;-82
2023/08/18 11:37:23;;;;;;;8.13;5.78;;;21.60;99.90;;;;;;5065271;28;20207;-82
2023/08/18 11:39:52;;;;;;;10.50;5.93;;;21.50;99.90;;;;;;5052004;28;20212;-82
2023/08/18 11:42:19;;;;;;;10.93;6.20;;;21.50;99.90;;;;;;5052503;28;20220;-82
2023/08/18 11:44:50;;;;;;;10.77;5.70;;;21.60;99.90;;;;;;5064777;28;20700;-82
2023/08/18 11:47:17;;;;;;;8.30;5.43;;;21.60;99.90;;;;;;5065264;28;20737;-83
2023/08/18 11:49:45;;;;;;;8.60;5.82;;;21.70;99.90;;;;;;5066168;28;20216;-83
2023/08/18 11:52:13;;;;;;;6.63;5.50;;;21.70;99.90;;;;;;5067131;28;20218;-82
2023/08/18 11:54:38;;;;;;;9.32;5.00;;;21.60;99.90;;;;;;5064751;28;20209;-83
2023/08/18 11:57:14;;;;;;;9.95;5.40;;;21.50;99.90;;;;;;5048688;28;20773;-83
2023/08/18 11:59:47;;;;;;;7.43;5.95;;;21.60;99.90;;;;;;5048772;28;20275;-83
2023/08/18 12:02:20;;;;;;;10.25;5.05;;;21.70;99.90;;;;;;5066567;28;20339;-82
2023/08/18 12:04:46;;;;;;;10.35;5.00;;;21.90;99.90;;;;;;5065591;28;20217;-82
2023/08/18 12:07:12;;;;;;;8.63;5.33;;;22.00;99.90;;;;;;5065741;28;20623;-81
2023/08/18 12:09:38;;;;;;;8.43;5.20;;;21.70;99.90;;;;;;5065090;28;20650;-81
2023/08/18 12:12:15;;;;;;;6.50;4.78;;;21.70;99.90;;;;;;5067957;28;20206;-81
2023/08/18 12:14:42;;;;;;;8.13;6.38;;;21.60;99.90;;;;;;5068520;28;20205;-80
2023/08/18 12:17:09;;;;;;;8.10;5.32;;;21.60;99.90;;;;;;5052294;28;20209;-80
2023/08/18 12:19:35;;;;;;;6.10;4.75;;;21.80;99.90;;;;;;5052916;28;20268;-81
2023/08/18 12:22:01;;;;;;;6.97;5.05;;;21.80;99.90;;;;;;5068859;28;20213;-82
2023/08/18 12:24:26;;;;;;;8.30;5.50;;;21.90;99.90;;;;;;5052105;28;20744;-80
2023/08/18 12:26:52;;;;;;;8.80;5.53;;;22.00;99.90;;;;;;5054782;28;20217;-82
2023/08/18 12:29:18;;;;;;;10.70;6.00;;;22.10;99.90;;;;;;5052138;28;20585;-81
2023/08/18 12:31:43;;;;;;;10.77;4.97;;;22.10;99.90;;;;;;5068946;28;20231;-81
2023/08/18 12:34:09;;;;;;;8.68;5.85;;;22.20;99.90;;;;;;5068479;28;20221;-81
2023/08/18 12:36:35;;;;;;;8.20;5.43;;;22.30;99.90;;;;;;5069799;28;20225;-81
2023/08/18 12:39:00;;;;;;;6.68;5.25;;;22.30;99.90;;;;;;5068506;28;20221;-81
2023/08/18 12:41:28;;;;;;;9.18;6.03;;;22.20;99.90;;;;;;5068419;28;20217;-81
2023/08/18 12:43:54;;;;;;;7.78;6.43;;;22.00;99.90;;;;;;5068317;28;20343;-80
2023/08/18 12:46:20;;;;;;;7.85;5.63;;;22.10;99.90;;;;;;5052283;28;20390;-81
2023/08/18 12:48:46;;;;;;;7.65;5.47;;;22.20;99.90;;;;;;5068278;28;20666;-81
2023/08/18 12:51:11;;;;;;;7.75;6.28;;;22.30;99.90;;;;;;5069440;28;20331;-80
2023/08/18 12:53:37;;;;;;;9.15;6.40;;;22.50;99.90;;;;;;5068395;28;20205;-80
2023/08/18 12:56:03;;;;;;;10.75;6.18;;;22.60;99.90;;;;;;5068356;28;20351;-80
2023/08/18 12:58:29;;;;;;;6.70;5.70;;;22.70;99.90;;;;;;5069151;28;20634;-81
2023/08/18 13:00:55;;;;;;;6.95;5.95;;;22.70;99.90;;;;;;5069486;28;20753;-81
2023/08/18 13:03:21;;;;;;;8.25;5.85;;;22.60;99.90;;;;;;5068152;28;20296;-80
2023/08/18 13:05:47;;;;;;;7.88;5.80;;;22.80;99.90;;;;;;5067997;28;20251;-80
2023/08/18 13:08:13;;;;;;;10.60;6.85;;;22.80;99.90;;;;;;5069313;28;20642;-81
2023/08/18 13:10:39;;;;;;;7.50;6.18;;;22.90;99.90;;;;;;5052216;28;20181;-80
2023/08/18 13:13:04;;;;;;;11.75;6.45;;;23.20;99.90;;;;;;5051689;28;20216;-80
2023/08/18 13:15:30;;;;;;;10.18;6.35;;;23.30;99.90;;;;;;5067815;28;20217;-80
2023/08/18 13:17:56;;;;;;;8.95;6.88;;;23.60;99.90;;;;;;5067739;28;20229;-80
2023/08/18 13:20:22;;;;;;;7.93;6.28;;;23.50;99.90;;;;;;5051118;28;20248;-80
2023/08/18 13:22:47;;;;;;;9.07;6.28;;;23.40;99.90;;;;;;5066779;28;20268;-81
2023/08/18 13:25:18;;;;;;;7.22;5.88;;;23.30;99.90;;;;;;5051611;28;20213;-81
2023/08/18 13:27:47;;;;;;;6.75;5.18;;;23.40;99.90;;;;;;5069196;28;20217;-80
2023/08/18 13:30:12;;;;;;;8.70;6.22;;;23.50;99.90;;;;;;5067546;28;20292;-81
2023/08/18 13:32:39;;;;;;;8.15;6.05;;;23.20;99.90;;;;;;5067475;28;20209;-80
2023/08/18 13:35:05;;;;;;;9.40;6.07;;;23.20;99.90;;;;;;5067397;28;20297;-81
2023/08/18 13:37:31;;;;;;;7.82;5.28;;;23.50;99.90;;;;;;5069624;28;20165;-81
2023/08/18 13:39:57;;;;;;;8.40;6.38;;;23.80;99.90;;;;;;5067553;28;20285;-81
2023/08/18 13:42:23;;;;;;;7.50;6.22;;;24.10;99.90;;;;;;5067544;28;20290;-81
2023/08/18 13:44:49;;;;;;;10.45;6.53;;;24.00;99.90;;;;;;5066612;28;20701;-81
2023/08/18 13:47:17;;;;;;;6.78;6.07;;;24.20;99.90;;;;;;5068719;28;20221;-81
2023/08/18 13:49:43;;;;;;;8.63;6.05;;;24.20;99.90;;;;;;5067897;28;20181;-81
2023/08/18 13:52:08;;;;;;;8.38;6.03;;;24.10;99.90;;;;;;5067289;28;20224;-82
2023/08/18 13:54:34;;;;;;;8.68;5.93;;;24.00;99.90;;;;;;5067153;28;20275;-80
2023/08/18 13:57:00;;;;;;;10.90;5.95;;;24.10;99.90;;;;;;5050597;28;20213;-81
2023/08/18 13:59:26;;;;;;;9.05;6.80;;;24.20;99.90;;;;;;5067145;28;20259;-80
2023/08/18 14:01:51;;;;;;;9.98;7.53;;;24.20;99.90;;;;;;5066910;28;20645;-81
2023/08/18 14:04:18;;;;;;;9.77;7.38;;;24.00;99.90;;;;;;5067248;28;20288;-81